Austinville, Pennsylvania
Current Conditions -  °F | °C
As of 6:53 AM on Monday 24 Nov 2014 (Local Time) from KELM Reporting Station
Overcast Overcast  
Wind Chill: 61°   Ceiling: 3300
Heat Index: 61°   Visibility: 10mi
Dew Point: 54°   Wind: 24mph
Humidity: 78%   Direction: 200°SSW
Pressure: 29.46"   Gusts: 30mph
Location:  41.8495°N, 76.7925°W
Report Text: KELM 241153Z 20021G26KT 10SM SCT025 BKN033 OVC065 16/12 A2946 RMK AO2 PK WND 21028/1127 SLP975 60033 70037 T01610122 10161 20100 58006
Loading
Personal Weather Stations






























Interactive Weather Map New forecast layout! Learn more

10-Day Weather Forecast

Advertisements
Track Severe Weather on mobile